createdAt,value
2018-09-06T00:01:46.104Z,48.78
2018-09-06T00:04:14.584Z,50.17
2018-09-06T00:06:43.080Z,49.73
2018-09-06T00:09:11.549Z,50.28
2018-09-06T00:11:40.073Z,50.24
2018-09-06T00:14:08.618Z,51.37
2018-09-06T00:16:37.186Z,50.77
2018-09-06T00:19:05.735Z,51.15
2018-09-06T00:21:34.243Z,51.25
2018-09-06T00:24:02.754Z,51.34
2018-09-06T00:26:31.283Z,51.32
2018-09-06T00:28:59.827Z,51.68
2018-09-06T00:31:28.326Z,51.85
2018-09-06T00:33:56.796Z,51.47
2018-09-06T00:36:25.255Z,52.04
2018-09-06T00:38:53.705Z,52.07
2018-09-06T00:41:22.232Z,52.23
2018-09-06T00:43:50.785Z,51.56
2018-09-06T00:46:19.286Z,51.22
2018-09-06T00:48:47.904Z,52.04
2018-09-06T00:51:16.383Z,51.05
2018-09-06T00:53:44.903Z,51.09
2018-09-06T00:56:13.488Z,51.57
2018-09-06T00:58:42.030Z,51.17
2018-09-06T01:01:10.463Z,51.54
2018-09-06T01:03:39.069Z,51.55
2018-09-06T01:06:07.890Z,50.63
2018-09-06T01:08:36.468Z,51.41
2018-09-06T01:11:04.997Z,51.43
2018-09-06T01:13:33.574Z,51.44
2018-09-06T01:16:02.082Z,50.89
2018-09-06T01:18:30.645Z,51.71
2018-09-06T01:20:59.219Z,51.68
2018-09-06T01:23:27.741Z,50.97
2018-09-06T01:25:56.306Z,50.76
2018-09-06T01:28:24.833Z,50.95
2018-09-06T01:30:53.458Z,50.34
2018-09-06T01:33:22.024Z,50.78
2018-09-06T01:35:55.763Z,50.59
2018-09-06T01:38:24.384Z,51.14
2018-09-06T01:40:52.920Z,50.93
2018-09-06T01:43:21.473Z,50.70
2018-09-06T01:45:50.078Z,49.92
2018-09-06T01:48:18.657Z,50.30
2018-09-06T01:50:47.244Z,49.58
2018-09-06T01:53:15.849Z,49.90
2018-09-06T01:55:44.408Z,50.90
2018-09-06T01:58:13.041Z,50.34
2018-09-06T02:00:41.937Z,49.80
2018-09-06T02:03:10.528Z,49.75
2018-09-06T02:05:39.052Z,50.33
2018-09-06T02:08:08.644Z,50.15
2018-09-06T02:10:37.275Z,49.87
2018-09-06T02:13:05.862Z,50.56
2018-09-06T02:15:34.855Z,50.40
2018-09-06T02:18:03.408Z,50.35
2018-09-06T02:20:32.043Z,50.57
2018-09-06T02:23:00.576Z,50.38
2018-09-06T02:25:29.189Z,50.65
2018-09-06T02:27:57.696Z,50.08
2018-09-06T02:30:26.224Z,50.63
2018-09-06T02:32:54.800Z,50.73
2018-09-06T02:35:23.373Z,50.17
2018-09-06T02:37:51.997Z,50.73
2018-09-06T02:40:25.903Z,50.88
2018-09-06T02:42:54.418Z,50.37
2018-09-06T02:45:23.054Z,51.07
2018-09-06T02:47:56.500Z,50.41
2018-09-06T02:50:30.157Z,50.65
2018-09-06T02:52:58.811Z,51.24
2018-09-06T02:55:28.638Z,51.58
2018-09-06T02:57:57.788Z,52.02
2018-09-06T03:00:36.128Z,51.52
2018-09-06T03:03:04.704Z,51.77
2018-09-06T03:05:33.243Z,52.24
2018-09-06T03:08:02.235Z,52.08
2018-09-06T03:10:48.000Z,52.46
2018-09-06T03:13:16.521Z,52.37
2018-09-06T03:15:45.095Z,53.28
2018-09-06T03:18:13.650Z,53.46
2018-09-06T03:20:42.164Z,53.57
2018-09-06T03:23:10.667Z,53.96
2018-09-06T03:25:39.252Z,53.50
2018-09-06T03:28:07.796Z,53.36
2018-09-06T03:30:36.374Z,54.38
2018-09-06T03:33:04.953Z,53.56
2018-09-06T03:35:33.522Z,53.86
2018-09-06T03:38:02.057Z,54.13
2018-09-06T03:40:30.643Z,54.54
2018-09-06T03:42:59.234Z,54.74
2018-09-06T03:45:27.899Z,54.14
2018-09-06T03:47:56.508Z,54.54
2018-09-06T03:50:25.116Z,54.53
2018-09-06T03:52:53.721Z,54.37
2018-09-06T03:55:22.379Z,54.16
2018-09-06T03:57:50.918Z,54.86
2018-09-06T04:00:19.521Z,54.63
2018-09-06T04:02:48.112Z,54.50
2018-09-06T04:05:16.925Z,55.00
2018-09-06T04:07:45.515Z,54.87
2018-09-06T04:10:14.153Z,54.51
2018-09-06T04:12:42.729Z,55.21
2018-09-06T04:15:11.308Z,55.20
2018-09-06T04:17:39.950Z,55.30
2018-09-06T04:20:08.544Z,54.97
2018-09-06T04:22:41.198Z,55.09
2018-09-06T04:25:09.803Z,55.32
2018-09-06T04:27:38.453Z,55.35
2018-09-06T04:30:07.019Z,55.54
2018-09-06T04:32:35.603Z,55.96
2018-09-06T04:35:04.312Z,56.52
2018-09-06T04:37:32.930Z,56.06
2018-09-06T04:40:01.577Z,56.76
2018-09-06T04:42:30.088Z,57.15
2018-09-06T04:44:58.709Z,57.07
2018-09-06T04:47:27.380Z,57.73
2018-09-06T04:49:55.985Z,57.19
2018-09-06T04:52:24.969Z,58.02
2018-09-06T04:54:53.610Z,58.34
2018-09-06T04:57:22.219Z,58.18
2018-09-06T04:59:50.857Z,58.48
2018-09-06T05:02:19.416Z,58.57
2018-09-06T05:04:48.033Z,58.85
2018-09-06T05:07:16.534Z,59.29
2018-09-06T05:09:45.008Z,59.54
2018-09-06T05:12:13.499Z,59.04
2018-09-06T05:14:41.985Z,60.06
2018-09-06T05:17:10.626Z,60.17
2018-09-06T05:19:39.178Z,59.62
2018-09-06T05:22:07.762Z,59.66
2018-09-06T05:24:36.354Z,60.18
2018-09-06T05:27:05.022Z,60.40
2018-09-06T05:29:33.533Z,59.75
2018-09-06T05:32:02.082Z,59.73
2018-09-06T05:34:30.681Z,60.11
2018-09-06T05:36:59.143Z,60.50
2018-09-06T05:39:27.666Z,60.68
2018-09-06T05:41:56.153Z,60.64
2018-09-06T05:44:24.636Z,60.62
2018-09-06T05:46:53.138Z,61.24
2018-09-06T05:49:21.588Z,60.66
2018-09-06T05:51:50.082Z,60.92
2018-09-06T05:54:18.603Z,61.11
2018-09-06T05:56:47.048Z,61.11
2018-09-06T05:59:15.607Z,60.48
2018-09-06T06:01:44.080Z,60.49
2018-09-06T06:04:12.502Z,61.38
2018-09-06T06:06:40.976Z,61.23
2018-09-06T06:09:10.022Z,61.48
2018-09-06T06:11:38.706Z,61.46
2018-09-06T06:14:07.160Z,61.42
2018-09-06T06:16:35.679Z,61.17
2018-09-06T06:19:04.358Z,61.30
2018-09-06T06:21:32.854Z,61.65
2018-09-06T06:24:01.326Z,60.81
2018-09-06T06:26:29.851Z,61.34
2018-09-06T06:28:58.410Z,60.97
2018-09-06T06:31:26.916Z,61.68
2018-09-06T06:33:55.461Z,61.04
2018-09-06T06:36:23.843Z,61.73
2018-09-06T06:38:52.698Z,60.90
2018-09-06T06:41:21.402Z,61.88
2018-09-06T06:43:50.674Z,60.88
2018-09-06T06:46:19.132Z,61.73
2018-09-06T06:48:47.618Z,61.64
2018-09-06T06:51:16.303Z,60.96
2018-09-06T06:53:44.984Z,61.18
2018-09-06T06:56:13.588Z,61.74
2018-09-06T06:58:42.327Z,60.92
2018-09-06T07:01:10.870Z,61.12
2018-09-06T07:03:39.836Z,60.93
2018-09-06T07:06:10.427Z,61.17
2018-09-06T07:08:39.279Z,61.12
2018-09-06T07:11:08.204Z,60.66
2018-09-06T07:13:37.008Z,60.61
2018-09-06T07:16:05.829Z,60.95
2018-09-06T07:18:34.751Z,61.00
2018-09-06T07:21:03.527Z,61.10
2018-09-06T07:23:31.992Z,60.28
2018-09-06T07:26:00.440Z,60.59
2018-09-06T07:28:28.962Z,60.40
2018-09-06T07:30:57.394Z,60.62
2018-09-06T07:33:25.862Z,60.98
2018-09-06T07:35:54.346Z,61.31
2018-09-06T07:38:22.812Z,61.26
2018-09-06T07:40:51.245Z,61.21
2018-09-06T07:43:19.750Z,61.36
2018-09-06T07:45:48.221Z,61.09
2018-09-06T07:48:16.739Z,61.02
2018-09-06T07:50:45.174Z,61.57
2018-09-06T07:53:13.700Z,61.77
2018-09-06T07:55:42.213Z,61.41
2018-09-06T07:58:10.764Z,62.32
2018-09-06T08:00:41.233Z,61.74
2018-09-06T08:03:10.588Z,61.68
2018-09-06T08:05:39.116Z,62.23
2018-09-06T08:08:07.591Z,61.17
2018-09-06T08:10:36.089Z,61.31
2018-09-06T08:13:04.605Z,60.79
2018-09-06T08:15:33.076Z,61.99
2018-09-06T08:18:01.748Z,61.94
2018-09-06T08:20:30.236Z,61.76
2018-09-06T08:22:58.786Z,61.52
2018-09-06T08:25:27.368Z,61.06
2018-09-06T08:27:56.002Z,61.28
2018-09-06T08:30:24.491Z,62.04
2018-09-06T08:32:53.062Z,61.06
2018-09-06T08:35:21.616Z,60.68
2018-09-06T08:37:50.152Z,61.35
2018-09-06T08:40:18.621Z,60.83
2018-09-06T08:42:47.103Z,60.99
2018-09-06T08:45:15.706Z,60.10
2018-09-06T08:47:44.277Z,60.25
2018-09-06T08:50:12.845Z,59.90
2018-09-06T08:52:41.431Z,60.61
2018-09-06T08:55:10.025Z,60.01
2018-09-06T08:57:38.673Z,59.60
2018-09-06T09:00:07.227Z,59.44
2018-09-06T09:02:35.910Z,59.35
2018-09-06T09:05:04.417Z,60.04
2018-09-06T09:07:33.089Z,59.58
2018-09-06T09:10:01.645Z,60.11
2018-09-06T09:12:35.143Z,60.40
2018-09-06T09:15:03.652Z,60.67
2018-09-06T09:17:32.293Z,59.81
2018-09-06T09:20:00.848Z,60.00
2018-09-06T09:22:29.739Z,59.46
2018-09-06T09:25:02.616Z,59.77
2018-09-06T09:27:31.580Z,59.65
2018-09-06T09:30:00.409Z,58.77
2018-09-06T09:32:29.302Z,58.67
2018-09-06T09:34:58.175Z,59.86
2018-09-06T09:37:27.107Z,60.06
2018-09-06T09:39:56.087Z,60.45
2018-09-06T09:42:24.948Z,59.70
2018-09-06T09:44:53.808Z,60.26
2018-09-06T09:49:52.246Z,59.05
2018-09-06T09:52:21.517Z,59.50
2018-09-06T09:54:50.439Z,59.16
2018-09-06T09:57:19.557Z,59.24
2018-09-06T09:59:48.516Z,58.80
2018-09-06T10:02:22.456Z,59.53
2018-09-06T10:05:01.418Z,58.63
2018-09-06T10:07:34.982Z,58.29
2018-09-06T10:10:03.585Z,58.71
2018-09-06T10:12:32.269Z,58.82
2018-09-06T10:15:01.161Z,58.79
2018-09-06T10:17:29.767Z,58.34
2018-09-06T10:19:58.441Z,58.00
2018-09-06T10:22:27.041Z,57.78
2018-09-06T10:24:55.714Z,58.49
2018-09-06T10:27:24.440Z,58.48
2018-09-06T10:29:53.140Z,57.97
2018-09-06T10:32:21.836Z,57.47
2018-09-06T10:34:50.420Z,57.85
2018-09-06T10:37:19.155Z,57.63
2018-09-06T10:39:47.985Z,57.94
2018-09-06T10:42:16.592Z,57.76
2018-09-06T10:44:45.380Z,56.89
2018-09-06T10:47:14.096Z,57.70
2018-09-06T10:49:42.753Z,58.19
2018-09-06T10:52:11.727Z,58.61
2018-09-06T10:54:41.073Z,58.54
2018-09-06T10:57:10.137Z,58.83
2018-09-06T10:59:39.653Z,58.39
2018-09-06T11:02:09.151Z,58.04
2018-09-06T11:04:39.490Z,58.21
2018-09-06T11:07:09.711Z,58.21
2018-09-06T11:09:39.080Z,58.29
2018-09-06T11:12:07.927Z,58.67
2018-09-06T11:14:36.621Z,58.27
2018-09-06T11:17:05.500Z,58.00
2018-09-06T11:19:35.621Z,57.95
2018-09-06T11:22:04.768Z,59.24
2018-09-06T11:24:33.850Z,59.20
2018-09-06T11:27:02.622Z,58.95
2018-09-06T11:29:31.627Z,58.32
2018-09-06T11:32:00.702Z,58.61
2018-09-06T11:34:32.338Z,59.13
2018-09-06T11:37:03.114Z,59.18
2018-09-06T11:39:31.965Z,58.82
2018-09-06T11:42:00.969Z,58.40
2018-09-06T11:44:39.774Z,59.31
2018-09-06T11:47:11.095Z,59.37
2018-09-06T11:49:40.684Z,58.92
2018-09-06T11:52:09.690Z,58.22
2018-09-06T11:54:38.697Z,58.09
2018-09-06T11:57:10.759Z,57.86
2018-09-06T11:59:41.574Z,58.09
2018-09-06T12:02:10.791Z,58.54
2018-09-06T12:04:39.489Z,57.19
2018-09-06T12:07:09.271Z,57.59
2018-09-06T12:09:38.040Z,56.62
2018-09-06T12:12:07.298Z,56.46
2018-09-06T12:14:36.276Z,56.54
2018-09-06T12:17:05.213Z,55.43
2018-09-06T12:19:34.139Z,56.62
2018-09-06T12:22:04.218Z,55.59
2018-09-06T12:24:33.419Z,55.41
2018-09-06T12:27:02.389Z,53.99
2018-09-06T12:29:31.305Z,53.48
2018-09-06T12:32:00.290Z,54.82
2018-09-06T12:34:29.172Z,53.65
2018-09-06T12:36:59.120Z,54.49
2018-09-06T12:39:30.192Z,53.55
2018-09-06T12:42:03.405Z,54.27
2018-09-06T12:44:33.661Z,53.91
2018-09-06T12:47:03.569Z,54.01
2018-09-06T12:49:32.427Z,51.98
2018-09-06T12:52:01.277Z,51.40
2018-09-06T12:54:31.188Z,51.56
2018-09-06T12:57:00.081Z,51.81
2018-09-06T12:59:29.014Z,51.88
2018-09-06T13:01:57.847Z,51.65
2018-09-06T13:07:00.209Z,50.38
2018-09-06T13:09:28.709Z,50.77
2018-09-06T13:11:57.221Z,51.11
2018-09-06T13:14:26.434Z,51.81
2018-09-06T13:16:55.010Z,52.52
2018-09-06T13:19:23.600Z,51.57
2018-09-06T13:21:52.219Z,52.31
2018-09-06T13:24:20.773Z,52.55
2018-09-06T13:26:49.387Z,51.33
2018-09-06T13:29:18.037Z,52.12
2018-09-06T13:31:46.879Z,51.50
2018-09-06T13:34:15.419Z,50.78
2018-09-06T13:36:44.097Z,51.23
2018-09-06T13:39:13.402Z,51.22
2018-09-06T13:41:42.066Z,50.56
2018-09-06T13:44:10.701Z,49.94
2018-09-06T13:46:39.245Z,49.20
2018-09-06T13:49:07.818Z,48.53
2018-09-06T13:51:36.467Z,48.75
2018-09-06T13:54:04.991Z,48.45
2018-09-06T13:56:33.500Z,49.19
2018-09-06T13:59:02.026Z,49.72
2018-09-06T14:01:30.666Z,49.46
2018-09-06T14:03:59.252Z,48.45
2018-09-06T14:06:27.827Z,49.57
2018-09-06T14:08:56.400Z,48.95
2018-09-06T14:11:25.060Z,48.89
2018-09-06T14:13:53.633Z,48.56
2018-09-06T14:16:22.362Z,47.93
2018-09-06T14:18:53.050Z,48.55
2018-09-06T14:21:21.577Z,49.25
2018-09-06T14:23:50.078Z,49.65
2018-09-06T14:26:18.804Z,49.24
2018-09-06T14:28:47.439Z,49.23
2018-09-06T14:31:16.313Z,48.89
2018-09-06T14:33:44.920Z,48.26
2018-09-06T14:36:13.866Z,49.52
2018-09-06T14:38:42.663Z,49.48
2018-09-06T14:41:11.391Z,50.12
2018-09-06T14:43:39.975Z,49.94
2018-09-06T14:46:09.234Z,50.52
2018-09-06T14:48:38.036Z,50.65
2018-09-06T14:51:06.602Z,49.85
2018-09-06T14:53:35.250Z,49.88
2018-09-06T14:56:03.771Z,49.53
2018-09-06T14:58:32.274Z,48.66
2018-09-06T15:01:00.893Z,48.66
2018-09-06T15:03:29.441Z,49.52
2018-09-06T15:05:58.062Z,48.62
2018-09-06T15:08:26.623Z,48.14
2018-09-06T15:10:55.292Z,48.56
2018-09-06T15:13:23.820Z,48.15
2018-09-06T15:15:52.328Z,47.73
2018-09-06T15:18:20.925Z,47.20
2018-09-06T15:20:49.814Z,48.47
2018-09-06T15:23:18.377Z,48.10
2018-09-06T15:25:46.971Z,48.88
2018-09-06T15:28:15.525Z,48.48
2018-09-06T15:30:44.113Z,48.06
2018-09-06T15:33:12.765Z,48.53
2018-09-06T15:35:41.381Z,49.22
2018-09-06T15:38:09.879Z,48.46
2018-09-06T15:40:38.365Z,48.70
2018-09-06T15:43:06.896Z,49.60
2018-09-06T15:45:35.495Z,48.77
2018-09-06T15:48:03.964Z,48.85
2018-09-06T15:50:32.811Z,48.71
2018-09-06T15:53:01.505Z,48.46
2018-09-06T15:55:30.087Z,49.48
2018-09-06T15:57:58.709Z,49.36
2018-09-06T16:00:27.280Z,48.94
2018-09-06T16:02:55.874Z,49.39
2018-09-06T16:05:24.430Z,50.35
2018-09-06T16:07:53.490Z,49.94
2018-09-06T16:10:21.940Z,49.85
2018-09-06T16:12:50.909Z,50.89
2018-09-06T16:15:19.711Z,51.13
2018-09-06T16:17:48.396Z,50.73
2018-09-06T16:20:17.079Z,51.14
2018-09-06T16:22:46.466Z,51.91
2018-09-06T16:25:15.441Z,52.17
2018-09-06T16:27:44.064Z,52.18
2018-09-06T16:30:12.867Z,52.53
2018-09-06T16:32:41.453Z,52.53
2018-09-06T16:35:09.989Z,52.56
2018-09-06T16:37:38.443Z,52.09
2018-09-06T16:40:06.996Z,51.93
2018-09-06T16:42:35.520Z,52.74
2018-09-06T16:45:04.132Z,52.55
2018-09-06T16:47:32.710Z,52.65
2018-09-06T16:50:01.240Z,53.08
2018-09-06T16:52:29.826Z,53.11
2018-09-06T16:54:58.632Z,53.31
2018-09-06T16:57:27.129Z,52.71
2018-09-06T16:59:55.663Z,53.63
2018-09-06T17:02:24.243Z,54.00
2018-09-06T17:04:52.775Z,54.16
2018-09-06T17:07:21.360Z,54.39
2018-09-06T17:09:49.923Z,53.66
2018-09-06T17:12:18.469Z,54.47
2018-09-06T17:14:47.088Z,54.11
2018-09-06T17:17:15.638Z,54.06
2018-09-06T17:19:44.145Z,54.98
2018-09-06T17:22:12.693Z,54.05
2018-09-06T17:24:41.206Z,55.00
2018-09-06T17:27:09.732Z,55.06
2018-09-06T17:29:38.200Z,55.54
2018-09-06T17:32:06.876Z,54.89
2018-09-06T17:34:35.456Z,54.97
2018-09-06T17:37:04.131Z,55.10
2018-09-06T17:39:32.693Z,55.94
2018-09-06T17:42:01.193Z,56.04
2018-09-06T17:44:29.747Z,55.93
2018-09-06T17:46:58.212Z,54.78
2018-09-06T17:49:26.742Z,55.46
2018-09-06T17:51:55.340Z,54.38
2018-09-06T17:54:23.884Z,55.15
2018-09-06T17:56:52.431Z,55.00
2018-09-06T17:59:20.954Z,54.76
2018-09-06T18:01:50.051Z,54.94
2018-09-06T18:04:18.558Z,53.75
2018-09-06T18:06:47.116Z,54.39
2018-09-06T18:09:15.693Z,55.11
2018-09-06T18:11:44.685Z,54.60
2018-09-06T18:14:13.300Z,55.34
2018-09-06T18:16:41.884Z,55.51
2018-09-06T18:19:10.482Z,55.64
2018-09-06T18:21:38.943Z,55.81
2018-09-06T18:24:07.452Z,55.78
2018-09-06T18:26:35.926Z,55.07
2018-09-06T18:29:04.442Z,56.00
2018-09-06T18:31:33.148Z,56.35
2018-09-06T18:34:01.679Z,55.78
2018-09-06T18:36:30.339Z,56.56
2018-09-06T18:38:58.897Z,55.88
2018-09-06T18:41:27.417Z,56.47
2018-09-06T18:43:55.920Z,56.95
2018-09-06T18:46:24.467Z,56.33
2018-09-06T18:48:53.006Z,55.88
2018-09-06T18:51:21.548Z,56.04
2018-09-06T18:53:50.057Z,56.07
2018-09-06T18:56:18.502Z,56.81
2018-09-06T18:58:47.031Z,56.17
2018-09-06T19:01:15.599Z,56.50
2018-09-06T19:03:44.208Z,57.04
2018-09-06T19:06:12.758Z,57.04
2018-09-06T19:08:41.475Z,57.01
2018-09-06T19:11:09.905Z,56.80
2018-09-06T19:13:38.390Z,56.92
2018-09-06T19:16:07.080Z,56.10
2018-09-06T19:18:35.582Z,56.78
2018-09-06T19:21:04.545Z,56.19
2018-09-06T19:23:33.093Z,56.53
2018-09-06T19:26:01.577Z,56.50
2018-09-06T19:28:30.149Z,56.36
2018-09-06T19:30:58.779Z,56.46
2018-09-06T19:33:27.633Z,56.21
2018-09-06T19:35:56.121Z,55.80
2018-09-06T19:38:24.550Z,56.42
2018-09-06T19:40:53.057Z,55.97
2018-09-06T19:43:21.492Z,55.80
2018-09-06T19:45:50.328Z,56.69
2018-09-06T19:48:18.906Z,56.02
2018-09-06T19:50:47.375Z,56.69
2018-09-06T19:53:15.864Z,56.60
2018-09-06T19:55:44.777Z,57.19
2018-09-06T19:58:13.480Z,56.79
2018-09-06T20:00:41.988Z,57.39
2018-09-06T20:03:10.589Z,57.04
2018-09-06T20:05:39.115Z,57.48
2018-09-06T20:08:07.733Z,57.54
2018-09-06T20:10:39.315Z,57.75
2018-09-06T20:13:07.978Z,57.35
2018-09-06T20:15:36.706Z,57.59
2018-09-06T20:18:05.345Z,58.03
2018-09-06T20:20:33.981Z,57.93
2018-09-06T20:23:02.563Z,58.19
2018-09-06T20:25:31.545Z,58.87
2018-09-06T20:28:00.281Z,59.11
2018-09-06T20:30:28.795Z,59.35
2018-09-06T20:32:57.292Z,59.33
2018-09-06T20:35:30.472Z,59.24
2018-09-06T20:37:59.177Z,59.10
2018-09-06T20:40:27.627Z,59.88
2018-09-06T20:42:56.207Z,59.08
2018-09-06T20:45:24.840Z,59.69
2018-09-06T20:47:53.418Z,59.63
2018-09-06T20:50:22.003Z,59.89
2018-09-06T20:52:50.594Z,59.27
2018-09-06T20:55:19.375Z,60.04
2018-09-06T20:57:47.872Z,59.27
2018-09-06T21:00:16.368Z,59.93
2018-09-06T21:02:44.817Z,59.51
2018-09-06T21:05:13.342Z,59.51
2018-09-06T21:07:41.801Z,59.64
2018-09-06T21:10:10.261Z,59.57
2018-09-06T21:12:38.760Z,59.35
2018-09-06T21:15:07.257Z,59.62
2018-09-06T21:17:35.765Z,59.92
2018-09-06T21:20:04.406Z,60.21
2018-09-06T21:22:32.977Z,59.26
2018-09-06T21:25:01.540Z,59.47
2018-09-06T21:27:30.056Z,59.46
2018-09-06T21:29:58.586Z,59.49
2018-09-06T21:32:27.168Z,60.10
2018-09-06T21:34:55.643Z,59.24
2018-09-06T21:37:24.124Z,59.18
2018-09-06T21:39:52.709Z,59.11
2018-09-06T21:42:21.152Z,59.74
2018-09-06T21:44:49.681Z,59.86
2018-09-06T21:47:18.310Z,59.46
2018-09-06T21:49:46.795Z,58.69
2018-09-06T21:52:15.269Z,58.73
2018-09-06T21:54:43.752Z,59.20
2018-09-06T21:57:12.284Z,58.51
2018-09-06T21:59:40.823Z,58.38
2018-09-06T22:02:13.538Z,58.29
2018-09-06T22:04:42.080Z,58.69
2018-09-06T22:07:10.634Z,59.09
2018-09-06T22:09:39.076Z,58.86
2018-09-06T22:12:11.696Z,59.28
2018-09-06T22:14:40.144Z,59.58
2018-09-06T22:17:08.685Z,59.05
2018-09-06T22:19:37.172Z,59.24
2018-09-06T22:22:05.659Z,59.19
2018-09-06T22:24:34.105Z,59.51
2018-09-06T22:27:02.593Z,59.45
2018-09-06T22:29:31.018Z,59.24
2018-09-06T22:31:59.574Z,59.55
2018-09-06T22:34:28.129Z,58.83
2018-09-06T22:36:56.623Z,58.68
2018-09-06T22:39:25.125Z,58.97
2018-09-06T22:41:53.615Z,59.81
2018-09-06T22:44:22.076Z,58.98
2018-09-06T22:46:50.573Z,59.16
2018-09-06T22:49:19.090Z,59.47
2018-09-06T22:51:47.575Z,59.58
2018-09-06T22:54:16.050Z,60.02
2018-09-06T22:56:44.539Z,60.05
2018-09-06T22:59:13.007Z,60.11
2018-09-06T23:01:41.511Z,60.82
2018-09-06T23:04:09.920Z,60.19
2018-09-06T23:06:38.386Z,60.86
2018-09-06T23:09:07.856Z,60.55
2018-09-06T23:11:36.357Z,60.89
2018-09-06T23:14:04.889Z,60.25
2018-09-06T23:16:33.469Z,60.44
2018-09-06T23:19:01.966Z,60.94
2018-09-06T23:21:30.423Z,60.67
2018-09-06T23:23:58.885Z,60.60
2018-09-06T23:26:27.420Z,60.09
2018-09-06T23:28:55.852Z,60.54
2018-09-06T23:31:24.343Z,60.00
2018-09-06T23:33:52.779Z,59.74
2018-09-06T23:36:21.291Z,60.22
2018-09-06T23:38:49.732Z,60.10
2018-09-06T23:41:18.202Z,59.52
2018-09-06T23:43:46.728Z,60.09
2018-09-06T23:46:15.156Z,59.39
2018-09-06T23:48:43.610Z,59.71
2018-09-06T23:51:12.085Z,59.12
2018-09-06T23:53:40.548Z,59.25
2018-09-06T23:56:09.045Z,59.93
2018-09-06T23:58:37.532Z,59.97
